sensor_id;sensor_type;location;lat;lon;timestamp;P1;durP1;ratioP1;P2;durP2;ratioP2
47669;SDS011;33408;52.062;11.722;2022-10-31T00:01:20;19.45;;;12.73;;
47669;SDS011;33408;52.062;11.722;2022-10-31T00:03:48;22.98;;;13.48;;
47669;SDS011;33408;52.062;11.722;2022-10-31T00:06:15;21.90;;;12.20;;
47669;SDS011;33408;52.062;11.722;2022-10-31T00:08:43;22.45;;;13.00;;
47669;SDS011;33408;52.062;11.722;2022-10-31T00:11:11;23.38;;;12.63;;
47669;SDS011;33408;52.062;11.722;2022-10-31T00:13:38;21.60;;;13.93;;
47669;SDS011;33408;52.062;11.722;2022-10-31T00:16:05;19.05;;;13.68;;
47669;SDS011;33408;52.062;11.722;2022-10-31T00:18:39;18.58;;;12.85;;
47669;SDS011;33408;52.062;11.722;2022-10-31T00:21:05;20.65;;;13.55;;
47669;SDS011;33408;52.062;11.722;2022-10-31T00:23:32;18.00;;;12.55;;
47669;SDS011;33408;52.062;11.722;2022-10-31T00:25:59;20.05;;;12.70;;
47669;SDS011;33408;52.062;11.722;2022-10-31T00:28:28;21.40;;;13.57;;
47669;SDS011;33408;52.062;11.722;2022-10-31T00:30:57;22.40;;;13.63;;
47669;SDS011;33408;52.062;11.722;2022-10-31T00:33:24;23.52;;;13.48;;
47669;SDS011;33408;52.062;11.722;2022-10-31T00:35:51;23.58;;;14.00;;
47669;SDS011;33408;52.062;11.722;2022-10-31T00:38:17;22.30;;;13.07;;
47669;SDS011;33408;52.062;11.722;2022-10-31T00:40:44;19.45;;;12.88;;
47669;SDS011;33408;52.062;11.722;2022-10-31T00:43:10;19.95;;;12.18;;
47669;SDS011;33408;52.062;11.722;2022-10-31T00:45:38;23.75;;;14.05;;
47669;SDS011;33408;52.062;11.722;2022-10-31T00:48:05;25.30;;;14.23;;
47669;SDS011;33408;52.062;11.722;2022-10-31T00:50:31;20.20;;;12.60;;
47669;SDS011;33408;52.062;11.722;2022-10-31T00:52:58;24.70;;;14.40;;
47669;SDS011;33408;52.062;11.722;2022-10-31T00:55:24;23.15;;;13.98;;
47669;SDS011;33408;52.062;11.722;2022-10-31T00:57:51;20.33;;;13.50;;
47669;SDS011;33408;52.062;11.722;2022-10-31T01:00:17;21.23;;;13.60;;
47669;SDS011;33408;52.062;11.722;2022-10-31T01:02:45;25.73;;;13.65;;
47669;SDS011;33408;52.062;11.722;2022-10-31T01:05:12;20.30;;;12.48;;
47669;SDS011;33408;52.062;11.722;2022-10-31T01:07:39;18.92;;;12.80;;
47669;SDS011;33408;52.062;11.722;2022-10-31T01:10:07;22.63;;;12.55;;
47669;SDS011;33408;52.062;11.722;2022-10-31T01:12:36;22.67;;;13.32;;
47669;SDS011;33408;52.062;11.722;2022-10-31T01:15:04;20.23;;;13.30;;
47669;SDS011;33408;52.062;11.722;2022-10-31T01:17:31;19.08;;;12.57;;
47669;SDS011;33408;52.062;11.722;2022-10-31T01:19:59;20.08;;;12.73;;
47669;SDS011;33408;52.062;11.722;2022-10-31T01:22:26;20.65;;;13.00;;
47669;SDS011;33408;52.062;11.722;2022-10-31T01:24:53;17.20;;;12.02;;
47669;SDS011;33408;52.062;11.722;2022-10-31T01:27:19;22.67;;;12.07;;
47669;SDS011;33408;52.062;11.722;2022-10-31T01:29:46;19.08;;;11.38;;
47669;SDS011;33408;52.062;11.722;2022-10-31T01:32:12;18.30;;;12.30;;
47669;SDS011;33408;52.062;11.722;2022-10-31T01:34:39;19.77;;;12.20;;
47669;SDS011;33408;52.062;11.722;2022-10-31T01:37:07;20.67;;;11.70;;
47669;SDS011;33408;52.062;11.722;2022-10-31T01:39:33;23.00;;;10.43;;
47669;SDS011;33408;52.062;11.722;2022-10-31T01:42:00;18.45;;;13.02;;
47669;SDS011;33408;52.062;11.722;2022-10-31T01:44:48;19.23;;;12.65;;
47669;SDS011;33408;52.062;11.722;2022-10-31T01:47:19;18.25;;;10.98;;
47669;SDS011;33408;52.062;11.722;2022-10-31T01:49:52;18.27;;;12.68;;
47669;SDS011;33408;52.062;11.722;2022-10-31T01:52:25;21.63;;;12.32;;
47669;SDS011;33408;52.062;11.722;2022-10-31T01:54:57;19.38;;;12.10;;
47669;SDS011;33408;52.062;11.722;2022-10-31T01:57:27;18.63;;;12.20;;
47669;SDS011;33408;52.062;11.722;2022-10-31T01:59:57;17.48;;;11.60;;
47669;SDS011;33408;52.062;11.722;2022-10-31T02:02:28;25.08;;;11.82;;
47669;SDS011;33408;52.062;11.722;2022-10-31T02:04:57;18.08;;;11.43;;
47669;SDS011;33408;52.062;11.722;2022-10-31T02:07:31;18.20;;;12.57;;
47669;SDS011;33408;52.062;11.722;2022-10-31T02:10:02;18.38;;;11.30;;
47669;SDS011;33408;52.062;11.722;2022-10-31T02:12:30;21.65;;;12.35;;
47669;SDS011;33408;52.062;11.722;2022-10-31T02:14:58;18.10;;;11.85;;
47669;SDS011;33408;52.062;11.722;2022-10-31T02:17:26;18.90;;;11.82;;
47669;SDS011;33408;52.062;11.722;2022-10-31T02:19:54;16.48;;;11.77;;
47669;SDS011;33408;52.062;11.722;2022-10-31T02:22:28;15.20;;;11.15;;
47669;SDS011;33408;52.062;11.722;2022-10-31T02:25:10;15.77;;;11.57;;
47669;SDS011;33408;52.062;11.722;2022-10-31T02:27:56;17.88;;;11.60;;
47669;SDS011;33408;52.062;11.722;2022-10-31T02:30:52;23.77;;;12.15;;
47669;SDS011;33408;52.062;11.722;2022-10-31T02:33:39;20.58;;;12.27;;
47669;SDS011;33408;52.062;11.722;2022-10-31T02:36:10;16.15;;;11.10;;
47669;SDS011;33408;52.062;11.722;2022-10-31T02:38:46;22.40;;;12.63;;
47669;SDS011;33408;52.062;11.722;2022-10-31T02:41:19;21.35;;;12.20;;
47669;SDS011;33408;52.062;11.722;2022-10-31T02:43:56;17.70;;;11.70;;
47669;SDS011;33408;52.062;11.722;2022-10-31T02:46:32;21.25;;;12.98;;
47669;SDS011;33408;52.062;11.722;2022-10-31T02:49:05;17.65;;;10.93;;
47669;SDS011;33408;52.062;11.722;2022-10-31T02:51:35;20.73;;;11.77;;
47669;SDS011;33408;52.062;11.722;2022-10-31T02:54:03;19.88;;;11.90;;
47669;SDS011;33408;52.062;11.722;2022-10-31T02:56:29;18.60;;;11.20;;
47669;SDS011;33408;52.062;11.722;2022-10-31T02:58:57;17.73;;;12.05;;
47669;SDS011;33408;52.062;11.722;2022-10-31T03:01:39;15.38;;;10.30;;
47669;SDS011;33408;52.062;11.722;2022-10-31T03:04:36;16.50;;;10.35;;
47669;SDS011;33408;52.062;11.722;2022-10-31T03:09:46;19.15;;;11.10;;
47669;SDS011;33408;52.062;11.722;2022-10-31T03:12:22;19.95;;;11.50;;
47669;SDS011;33408;52.062;11.722;2022-10-31T03:14:56;19.58;;;11.65;;
47669;SDS011;33408;52.062;11.722;2022-10-31T03:17:33;17.35;;;12.07;;
47669;SDS011;33408;52.062;11.722;2022-10-31T03:20:03;19.53;;;12.10;;
47669;SDS011;33408;52.062;11.722;2022-10-31T03:22:32;19.83;;;12.38;;
47669;SDS011;33408;52.062;11.722;2022-10-31T03:25:02;17.23;;;11.27;;
47669;SDS011;33408;52.062;11.722;2022-10-31T03:27:31;19.60;;;11.50;;
47669;SDS011;33408;52.062;11.722;2022-10-31T03:30:02;17.20;;;11.00;;
47669;SDS011;33408;52.062;11.722;2022-10-31T03:32:34;16.90;;;10.27;;
47669;SDS011;33408;52.062;11.722;2022-10-31T03:35:06;20.38;;;10.30;;
47669;SDS011;33408;52.062;11.722;2022-10-31T03:37:35;18.95;;;11.57;;
47669;SDS011;33408;52.062;11.722;2022-10-31T03:40:03;22.17;;;11.05;;
47669;SDS011;33408;52.062;11.722;2022-10-31T03:42:34;19.27;;;11.52;;
47669;SDS011;33408;52.062;11.722;2022-10-31T03:45:05;16.27;;;10.60;;
47669;SDS011;33408;52.062;11.722;2022-10-31T03:47:37;17.65;;;10.45;;
47669;SDS011;33408;52.062;11.722;2022-10-31T03:50:06;17.25;;;11.02;;
47669;SDS011;33408;52.062;11.722;2022-10-31T03:52:35;17.27;;;10.68;;
47669;SDS011;33408;52.062;11.722;2022-10-31T03:55:09;20.30;;;11.07;;
47669;SDS011;33408;52.062;11.722;2022-10-31T03:57:39;20.20;;;11.18;;
47669;SDS011;33408;52.062;11.722;2022-10-31T04:00:12;14.82;;;9.88;;
47669;SDS011;33408;52.062;11.722;2022-10-31T04:02:42;15.20;;;10.63;;
47669;SDS011;33408;52.062;11.722;2022-10-31T04:05:13;17.50;;;10.07;;
47669;SDS011;33408;52.062;11.722;2022-10-31T04:07:44;16.38;;;10.45;;
47669;SDS011;33408;52.062;11.722;2022-10-31T04:10:13;17.13;;;10.55;;
47669;SDS011;33408;52.062;11.722;2022-10-31T04:12:42;13.10;;;9.38;;
47669;SDS011;33408;52.062;11.722;2022-10-31T04:15:10;15.75;;;10.80;;
47669;SDS011;33408;52.062;11.722;2022-10-31T04:17:39;17.65;;;11.13;;
47669;SDS011;33408;52.062;11.722;2022-10-31T04:20:10;20.15;;;9.48;;
47669;SDS011;33408;52.062;11.722;2022-10-31T04:22:37;16.33;;;9.98;;
47669;SDS011;33408;52.062;11.722;2022-10-31T04:25:04;19.15;;;10.23;;
47669;SDS011;33408;52.062;11.722;2022-10-31T04:27:31;20.92;;;12.43;;
47669;SDS011;33408;52.062;11.722;2022-10-31T04:29:57;16.67;;;10.40;;
47669;SDS011;33408;52.062;11.722;2022-10-31T04:32:24;14.95;;;10.52;;
47669;SDS011;33408;52.062;11.722;2022-10-31T04:34:52;19.70;;;10.38;;
47669;SDS011;33408;52.062;11.722;2022-10-31T04:37:18;19.88;;;11.13;;
47669;SDS011;33408;52.062;11.722;2022-10-31T04:39:45;15.75;;;11.30;;
47669;SDS011;33408;52.062;11.722;2022-10-31T04:42:11;20.17;;;11.30;;
47669;SDS011;33408;52.062;11.722;2022-10-31T04:44:38;15.20;;;10.27;;
47669;SDS011;33408;52.062;11.722;2022-10-31T04:47:04;17.45;;;11.52;;
47669;SDS011;33408;52.062;11.722;2022-10-31T04:49:31;18.85;;;10.52;;
47669;SDS011;33408;52.062;11.722;2022-10-31T04:51:59;16.50;;;10.07;;
47669;SDS011;33408;52.062;11.722;2022-10-31T04:54:25;19.30;;;11.35;;
47669;SDS011;33408;52.062;11.722;2022-10-31T04:56:52;16.95;;;10.18;;
47669;SDS011;33408;52.062;11.722;2022-10-31T04:59:18;16.00;;;10.13;;
47669;SDS011;33408;52.062;11.722;2022-10-31T05:01:45;23.80;;;11.70;;
47669;SDS011;33408;52.062;11.722;2022-10-31T05:04:11;14.95;;;10.30;;
47669;SDS011;33408;52.062;11.722;2022-10-31T05:06:37;18.15;;;10.50;;
47669;SDS011;33408;52.062;11.722;2022-10-31T05:09:05;16.67;;;10.65;;
47669;SDS011;33408;52.062;11.722;2022-10-31T05:11:32;18.23;;;10.70;;
47669;SDS011;33408;52.062;11.722;2022-10-31T05:13:58;19.00;;;11.02;;
47669;SDS011;33408;52.062;11.722;2022-10-31T05:16:25;15.95;;;11.05;;
47669;SDS011;33408;52.062;11.722;2022-10-31T05:18:51;22.45;;;10.43;;
47669;SDS011;33408;52.062;11.722;2022-10-31T05:21:18;16.25;;;9.30;;
47669;SDS011;33408;52.062;11.722;2022-10-31T05:23:44;17.92;;;10.10;;
47669;SDS011;33408;52.062;11.722;2022-10-31T05:26:12;16.50;;;10.70;;
47669;SDS011;33408;52.062;11.722;2022-10-31T05:28:39;17.58;;;11.30;;
47669;SDS011;33408;52.062;11.722;2022-10-31T05:31:05;18.02;;;10.35;;
47669;SDS011;33408;52.062;11.722;2022-10-31T05:33:32;16.00;;;10.30;;
47669;SDS011;33408;52.062;11.722;2022-10-31T05:35:58;16.58;;;10.48;;
47669;SDS011;33408;52.062;11.722;2022-10-31T05:38:25;16.90;;;10.63;;
47669;SDS011;33408;52.062;11.722;2022-10-31T05:40:53;18.80;;;11.18;;
47669;SDS011;33408;52.062;11.722;2022-10-31T05:43:23;16.33;;;10.65;;
47669;SDS011;33408;52.062;11.722;2022-10-31T05:45:51;16.05;;;10.85;;
47669;SDS011;33408;52.062;11.722;2022-10-31T05:48:18;16.38;;;10.27;;
47669;SDS011;33408;52.062;11.722;2022-10-31T05:50:44;16.63;;;10.82;;
47669;SDS011;33408;52.062;11.722;2022-10-31T05:53:13;15.73;;;10.82;;
47669;SDS011;33408;52.062;11.722;2022-10-31T05:55:40;16.50;;;10.95;;
47669;SDS011;33408;52.062;11.722;2022-10-31T05:58:06;22.30;;;11.75;;
47669;SDS011;33408;52.062;11.722;2022-10-31T06:00:34;17.30;;;11.50;;
47669;SDS011;33408;52.062;11.722;2022-10-31T06:03:01;18.73;;;11.57;;
47669;SDS011;33408;52.062;11.722;2022-10-31T06:05:29;14.50;;;11.18;;
47669;SDS011;33408;52.062;11.722;2022-10-31T06:07:56;20.02;;;11.43;;
47669;SDS011;33408;52.062;11.722;2022-10-31T06:10:23;19.60;;;11.57;;
47669;SDS011;33408;52.062;11.722;2022-10-31T06:12:50;26.35;;;11.45;;
47669;SDS011;33408;52.062;11.722;2022-10-31T06:15:17;16.83;;;10.20;;
47669;SDS011;33408;52.062;11.722;2022-10-31T06:17:45;14.50;;;9.93;;
47669;SDS011;33408;52.062;11.722;2022-10-31T06:20:12;18.27;;;10.05;;
47669;SDS011;33408;52.062;11.722;2022-10-31T06:22:38;16.98;;;11.27;;
47669;SDS011;33408;52.062;11.722;2022-10-31T06:25:05;19.33;;;11.32;;
47669;SDS011;33408;52.062;11.722;2022-10-31T06:27:31;19.45;;;12.52;;
47669;SDS011;33408;52.062;11.722;2022-10-31T06:29:58;14.88;;;10.88;;
47669;SDS011;33408;52.062;11.722;2022-10-31T06:32:24;17.95;;;11.82;;
47669;SDS011;33408;52.062;11.722;2022-10-31T06:34:52;16.20;;;11.15;;
47669;SDS011;33408;52.062;11.722;2022-10-31T06:37:19;16.65;;;10.63;;
47669;SDS011;33408;52.062;11.722;2022-10-31T06:39:45;15.13;;;10.40;;
47669;SDS011;33408;52.062;11.722;2022-10-31T06:42:12;22.73;;;11.27;;
47669;SDS011;33408;52.062;11.722;2022-10-31T06:44:38;19.73;;;11.18;;
47669;SDS011;33408;52.062;11.722;2022-10-31T06:47:05;16.75;;;10.57;;
47669;SDS011;33408;52.062;11.722;2022-10-31T06:49:31;13.07;;;8.55;;
47669;SDS011;33408;52.062;11.722;2022-10-31T06:51:59;19.48;;;9.95;;
47669;SDS011;33408;52.062;11.722;2022-10-31T06:54:26;18.50;;;9.45;;
47669;SDS011;33408;52.062;11.722;2022-10-31T06:56:54;14.95;;;10.32;;
47669;SDS011;33408;52.062;11.722;2022-10-31T06:59:20;15.65;;;10.20;;
47669;SDS011;33408;52.062;11.722;2022-10-31T07:01:47;15.45;;;10.02;;
47669;SDS011;33408;52.062;11.722;2022-10-31T07:04:14;19.20;;;11.60;;
47669;SDS011;33408;52.062;11.722;2022-10-31T07:06:40;20.13;;;11.75;;
47669;SDS011;33408;52.062;11.722;2022-10-31T07:09:08;18.25;;;11.63;;
47669;SDS011;33408;52.062;11.722;2022-10-31T07:11:34;20.33;;;14.18;;
47669;SDS011;33408;52.062;11.722;2022-10-31T07:14:01;20.23;;;13.02;;
47669;SDS011;33408;52.062;11.722;2022-10-31T07:16:28;25.85;;;15.18;;
47669;SDS011;33408;52.062;11.722;2022-10-31T07:18:54;29.15;;;16.20;;
47669;SDS011;33408;52.062;11.722;2022-10-31T07:21:21;26.48;;;16.15;;
47669;SDS011;33408;52.062;11.722;2022-10-31T07:23:47;23.98;;;16.13;;
47669;SDS011;33408;52.062;11.722;2022-10-31T07:26:15;23.50;;;14.85;;
47669;SDS011;33408;52.062;11.722;2022-10-31T07:28:42;27.40;;;15.48;;
47669;SDS011;33408;52.062;11.722;2022-10-31T07:31:08;18.63;;;12.63;;
47669;SDS011;33408;52.062;11.722;2022-10-31T07:33:35;23.80;;;13.93;;
47669;SDS011;33408;52.062;11.722;2022-10-31T07:36:02;20.95;;;14.27;;
47669;SDS011;33408;52.062;11.722;2022-10-31T07:38:28;23.63;;;16.35;;
47669;SDS011;33408;52.062;11.722;2022-10-31T07:40:55;26.27;;;15.50;;
47669;SDS011;33408;52.062;11.722;2022-10-31T07:43:23;23.25;;;16.35;;
47669;SDS011;33408;52.062;11.722;2022-10-31T07:45:50;36.60;;;20.08;;
47669;SDS011;33408;52.062;11.722;2022-10-31T07:48:17;45.08;;;27.00;;
47669;SDS011;33408;52.062;11.722;2022-10-31T07:50:43;44.22;;;26.38;;
47669;SDS011;33408;52.062;11.722;2022-10-31T07:53:11;52.72;;;32.42;;
47669;SDS011;33408;52.062;11.722;2022-10-31T07:55:39;57.80;;;34.10;;
47669;SDS011;33408;52.062;11.722;2022-10-31T07:58:06;67.78;;;36.55;;
47669;SDS011;33408;52.062;11.722;2022-10-31T08:00:35;71.45;;;39.40;;
47669;SDS011;33408;52.062;11.722;2022-10-31T08:03:03;62.05;;;36.78;;
47669;SDS011;33408;52.062;11.722;2022-10-31T08:05:31;69.18;;;39.88;;
47669;SDS011;33408;52.062;11.722;2022-10-31T08:07:58;65.15;;;38.97;;
47669;SDS011;33408;52.062;11.722;2022-10-31T08:10:25;60.30;;;37.47;;
47669;SDS011;33408;52.062;11.722;2022-10-31T08:12:56;71.63;;;38.58;;
47669;SDS011;33408;52.062;11.722;2022-10-31T08:15:23;66.85;;;38.97;;
47669;SDS011;33408;52.062;11.722;2022-10-31T08:17:51;75.45;;;40.25;;
47669;SDS011;33408;52.062;11.722;2022-10-31T08:20:18;72.13;;;39.42;;
47669;SDS011;33408;52.062;11.722;2022-10-31T08:22:52;72.38;;;41.90;;
47669;SDS011;33408;52.062;11.722;2022-10-31T08:25:20;63.90;;;39.83;;
47669;SDS011;33408;52.062;11.722;2022-10-31T08:27:48;74.85;;;41.33;;
47669;SDS011;33408;52.062;11.722;2022-10-31T08:30:15;81.93;;;45.88;;
47669;SDS011;33408;52.062;11.722;2022-10-31T08:32:41;83.00;;;46.53;;
47669;SDS011;33408;52.062;11.722;2022-10-31T08:35:09;75.80;;;42.00;;
47669;SDS011;33408;52.062;11.722;2022-10-31T08:37:36;79.97;;;46.80;;
47669;SDS011;33408;52.062;11.722;2022-10-31T08:40:03;91.70;;;49.85;;
47669;SDS011;33408;52.062;11.722;2022-10-31T08:42:30;84.45;;;46.78;;
47669;SDS011;33408;52.062;11.722;2022-10-31T08:44:56;82.35;;;47.45;;
47669;SDS011;33408;52.062;11.722;2022-10-31T08:47:23;86.07;;;49.45;;
47669;SDS011;33408;52.062;11.722;2022-10-31T08:49:49;94.15;;;49.83;;
47669;SDS011;33408;52.062;11.722;2022-10-31T08:52:18;88.72;;;50.78;;
47669;SDS011;33408;52.062;11.722;2022-10-31T08:54:48;90.15;;;50.05;;
47669;SDS011;33408;52.062;11.722;2022-10-31T08:57:14;95.18;;;51.08;;
47669;SDS011;33408;52.062;11.722;2022-10-31T08:59:41;77.88;;;47.60;;
47669;SDS011;33408;52.062;11.722;2022-10-31T09:02:07;77.00;;;46.22;;
47669;SDS011;33408;52.062;11.722;2022-10-31T09:04:34;85.80;;;47.90;;
47669;SDS011;33408;52.062;11.722;2022-10-31T09:07:01;83.57;;;45.83;;
47669;SDS011;33408;52.062;11.722;2022-10-31T09:09:28;79.10;;;45.42;;
47669;SDS011;33408;52.062;11.722;2022-10-31T09:11:55;79.32;;;43.67;;
47669;SDS011;33408;52.062;11.722;2022-10-31T09:14:21;77.40;;;45.78;;
47669;SDS011;33408;52.062;11.722;2022-10-31T09:16:48;86.05;;;46.33;;
47669;SDS011;33408;52.062;11.722;2022-10-31T09:19:14;88.35;;;45.85;;
47669;SDS011;33408;52.062;11.722;2022-10-31T09:21:41;79.05;;;47.20;;
47669;SDS011;33408;52.062;11.722;2022-10-31T09:24:07;75.93;;;45.65;;
47669;SDS011;33408;52.062;11.722;2022-10-31T09:26:35;79.03;;;46.13;;
47669;SDS011;33408;52.062;11.722;2022-10-31T09:29:02;81.75;;;45.15;;
47669;SDS011;33408;52.062;11.722;2022-10-31T09:31:29;77.15;;;45.75;;
47669;SDS011;33408;52.062;11.722;2022-10-31T09:33:56;82.90;;;45.97;;
47669;SDS011;33408;52.062;11.722;2022-10-31T09:36:22;77.75;;;45.95;;
47669;SDS011;33408;52.062;11.722;2022-10-31T09:38:49;72.85;;;44.45;;
47669;SDS011;33408;52.062;11.722;2022-10-31T09:41:19;71.50;;;44.05;;
47669;SDS011;33408;52.062;11.722;2022-10-31T09:43:54;85.75;;;46.55;;
47669;SDS011;33408;52.062;11.722;2022-10-31T09:46:28;82.22;;;45.97;;
47669;SDS011;33408;52.062;11.722;2022-10-31T09:49:07;83.25;;;46.33;;
47669;SDS011;33408;52.062;11.722;2022-10-31T09:51:49;74.93;;;43.03;;
47669;SDS011;33408;52.062;11.722;2022-10-31T09:54:25;78.03;;;45.22;;
47669;SDS011;33408;52.062;11.722;2022-10-31T09:56:56;78.80;;;43.80;;
47669;SDS011;33408;52.062;11.722;2022-10-31T09:59:28;78.28;;;44.47;;
47669;SDS011;33408;52.062;11.722;2022-10-31T10:01:58;75.82;;;44.20;;
47669;SDS011;33408;52.062;11.722;2022-10-31T10:04:31;83.25;;;45.35;;
47669;SDS011;33408;52.062;11.722;2022-10-31T10:07:05;97.63;;;46.92;;
47669;SDS011;33408;52.062;11.722;2022-10-31T10:09:37;76.55;;;46.17;;
47669;SDS011;33408;52.062;11.722;2022-10-31T10:12:06;71.50;;;42.38;;
47669;SDS011;33408;52.062;11.722;2022-10-31T10:14:45;79.85;;;49.00;;
47669;SDS011;33408;52.062;11.722;2022-10-31T10:17:24;76.20;;;45.88;;
47669;SDS011;33408;52.062;11.722;2022-10-31T10:20:09;75.85;;;45.08;;
47669;SDS011;33408;52.062;11.722;2022-10-31T10:22:46;72.70;;;47.65;;
47669;SDS011;33408;52.062;11.722;2022-10-31T10:25:20;84.13;;;51.70;;
47669;SDS011;33408;52.062;11.722;2022-10-31T10:27:50;103.45;;;61.50;;
47669;SDS011;33408;52.062;11.722;2022-10-31T10:30:31;90.60;;;54.70;;
47669;SDS011;33408;52.062;11.722;2022-10-31T10:33:03;81.47;;;47.78;;
47669;SDS011;33408;52.062;11.722;2022-10-31T10:35:34;71.70;;;43.08;;
47669;SDS011;33408;52.062;11.722;2022-10-31T10:38:10;93.47;;;57.88;;
47669;SDS011;33408;52.062;11.722;2022-10-31T10:40:42;78.68;;;46.00;;
47669;SDS011;33408;52.062;11.722;2022-10-31T10:43:20;75.70;;;44.80;;
47669;SDS011;33408;52.062;11.722;2022-10-31T10:45:50;73.15;;;43.40;;
47669;SDS011;33408;52.062;11.722;2022-10-31T10:48:45;102.93;;;81.53;;
47669;SDS011;33408;52.062;11.722;2022-10-31T10:51:20;84.72;;;50.55;;
47669;SDS011;33408;52.062;11.722;2022-10-31T10:53:54;76.20;;;46.88;;
47669;SDS011;33408;52.062;11.722;2022-10-31T10:56:36;70.90;;;45.38;;
47669;SDS011;33408;52.062;11.722;2022-10-31T10:59:09;78.75;;;49.65;;
47669;SDS011;33408;52.062;11.722;2022-10-31T11:01:41;74.60;;;49.88;;
47669;SDS011;33408;52.062;11.722;2022-10-31T11:06:56;78.35;;;45.72;;
47669;SDS011;33408;52.062;11.722;2022-10-31T11:09:27;72.75;;;43.55;;
47669;SDS011;33408;52.062;11.722;2022-10-31T11:11:54;71.28;;;42.35;;
47669;SDS011;33408;52.062;11.722;2022-10-31T11:14:22;73.47;;;44.40;;
47669;SDS011;33408;52.062;11.722;2022-10-31T11:16:51;86.35;;;46.50;;
47669;SDS011;33408;52.062;11.722;2022-10-31T11:19:21;86.72;;;47.30;;
47669;SDS011;33408;52.062;11.722;2022-10-31T11:21:50;68.05;;;43.28;;
47669;SDS011;33408;52.062;11.722;2022-10-31T11:24:17;72.53;;;44.30;;
47669;SDS011;33408;52.062;11.722;2022-10-31T11:26:46;69.20;;;44.15;;
47669;SDS011;33408;52.062;11.722;2022-10-31T11:29:14;80.53;;;49.05;;
47669;SDS011;33408;52.062;11.722;2022-10-31T11:31:43;67.75;;;43.53;;
47669;SDS011;33408;52.062;11.722;2022-10-31T11:34:17;71.55;;;42.92;;
47669;SDS011;33408;52.062;11.722;2022-10-31T11:36:54;68.22;;;44.92;;
47669;SDS011;33408;52.062;11.722;2022-10-31T11:39:25;78.93;;;46.03;;
47669;SDS011;33408;52.062;11.722;2022-10-31T11:41:54;79.70;;;45.17;;
47669;SDS011;33408;52.062;11.722;2022-10-31T11:44:25;71.35;;;43.50;;
47669;SDS011;33408;52.062;11.722;2022-10-31T11:46:55;75.22;;;43.60;;
47669;SDS011;33408;52.062;11.722;2022-10-31T11:49:28;72.50;;;42.33;;
47669;SDS011;33408;52.062;11.722;2022-10-31T11:51:58;75.72;;;46.53;;
47669;SDS011;33408;52.062;11.722;2022-10-31T11:54:27;76.35;;;44.28;;
47669;SDS011;33408;52.062;11.722;2022-10-31T11:56:56;77.35;;;45.67;;
47669;SDS011;33408;52.062;11.722;2022-10-31T11:59:24;87.75;;;42.28;;
47669;SDS011;33408;52.062;11.722;2022-10-31T12:01:54;69.20;;;42.10;;
47669;SDS011;33408;52.062;11.722;2022-10-31T12:04:24;66.38;;;40.53;;
47669;SDS011;33408;52.062;11.722;2022-10-31T12:07:01;67.15;;;41.20;;
47669;SDS011;33408;52.062;11.722;2022-10-31T12:09:28;72.07;;;44.17;;
47669;SDS011;33408;52.062;11.722;2022-10-31T12:12:00;74.80;;;44.50;;
47669;SDS011;33408;52.062;11.722;2022-10-31T12:14:44;72.07;;;44.60;;
47669;SDS011;33408;52.062;11.722;2022-10-31T12:17:21;66.82;;;43.10;;
47669;SDS011;33408;52.062;11.722;2022-10-31T12:19:54;75.30;;;43.15;;
47669;SDS011;33408;52.062;11.722;2022-10-31T12:22:29;67.10;;;38.97;;
47669;SDS011;33408;52.062;11.722;2022-10-31T12:25:11;70.90;;;42.40;;
47669;SDS011;33408;52.062;11.722;2022-10-31T12:27:51;72.05;;;43.53;;
47669;SDS011;33408;52.062;11.722;2022-10-31T12:30:27;70.45;;;43.60;;
47669;SDS011;33408;52.062;11.722;2022-10-31T12:33:12;72.97;;;43.55;;
47669;SDS011;33408;52.062;11.722;2022-10-31T12:35:50;80.88;;;46.08;;
47669;SDS011;33408;52.062;11.722;2022-10-31T12:38:28;78.10;;;44.67;;
47669;SDS011;33408;52.062;11.722;2022-10-31T12:41:12;77.78;;;45.65;;
47669;SDS011;33408;52.062;11.722;2022-10-31T12:43:52;71.00;;;43.85;;
47669;SDS011;33408;52.062;11.722;2022-10-31T12:46:25;81.18;;;47.45;;
47669;SDS011;33408;52.062;11.722;2022-10-31T12:49:20;84.22;;;46.85;;
47669;SDS011;33408;52.062;11.722;2022-10-31T12:52:04;85.10;;;51.03;;
47669;SDS011;33408;52.062;11.722;2022-10-31T12:54:45;87.38;;;49.67;;
47669;SDS011;33408;52.062;11.722;2022-10-31T12:57:23;87.22;;;48.28;;
47669;SDS011;33408;52.062;11.722;2022-10-31T12:59:57;81.05;;;48.60;;
47669;SDS011;33408;52.062;11.722;2022-10-31T13:02:29;78.47;;;48.20;;
47669;SDS011;33408;52.062;11.722;2022-10-31T13:05:00;79.65;;;49.08;;
47669;SDS011;33408;52.062;11.722;2022-10-31T13:07:32;76.57;;;46.63;;
47669;SDS011;33408;52.062;11.722;2022-10-31T13:10:05;81.45;;;46.22;;
47669;SDS011;33408;52.062;11.722;2022-10-31T13:12:36;91.90;;;46.95;;
47669;SDS011;33408;52.062;11.722;2022-10-31T13:15:05;77.85;;;46.38;;
47669;SDS011;33408;52.062;11.722;2022-10-31T13:17:42;75.82;;;45.78;;
47669;SDS011;33408;52.062;11.722;2022-10-31T13:20:15;79.53;;;47.45;;
47669;SDS011;33408;52.062;11.722;2022-10-31T13:22:48;76.32;;;44.90;;
47669;SDS011;33408;52.062;11.722;2022-10-31T13:25:19;79.25;;;46.47;;
47669;SDS011;33408;52.062;11.722;2022-10-31T13:27:51;76.00;;;46.95;;
47669;SDS011;33408;52.062;11.722;2022-10-31T13:30:21;86.53;;;49.67;;
47669;SDS011;33408;52.062;11.722;2022-10-31T13:32:50;104.85;;;59.40;;
47669;SDS011;33408;52.062;11.722;2022-10-31T13:35:23;88.20;;;53.25;;
47669;SDS011;33408;52.062;11.722;2022-10-31T13:38:00;88.80;;;51.13;;
47669;SDS011;33408;52.062;11.722;2022-10-31T13:40:38;88.95;;;52.58;;
47669;SDS011;33408;52.062;11.722;2022-10-31T13:43:14;86.57;;;51.22;;
47669;SDS011;33408;52.062;11.722;2022-10-31T13:45:50;81.75;;;48.55;;
47669;SDS011;33408;52.062;11.722;2022-10-31T13:48:19;81.15;;;49.50;;
47669;SDS011;33408;52.062;11.722;2022-10-31T13:51:00;88.93;;;48.43;;
47669;SDS011;33408;52.062;11.722;2022-10-31T13:53:36;81.50;;;48.33;;
47669;SDS011;33408;52.062;11.722;2022-10-31T13:56:11;84.18;;;48.05;;
47669;SDS011;33408;52.062;11.722;2022-10-31T13:58:42;73.50;;;47.38;;
47669;SDS011;33408;52.062;11.722;2022-10-31T14:01:28;84.20;;;47.78;;
47669;SDS011;33408;52.062;11.722;2022-10-31T14:03:56;85.43;;;51.05;;
47669;SDS011;33408;52.062;11.722;2022-10-31T14:06:36;85.75;;;49.30;;
47669;SDS011;33408;52.062;11.722;2022-10-31T14:09:14;78.88;;;48.33;;
47669;SDS011;33408;52.062;11.722;2022-10-31T14:11:45;84.78;;;48.35;;
47669;SDS011;33408;52.062;11.722;2022-10-31T14:14:13;74.38;;;43.40;;
47669;SDS011;33408;52.062;11.722;2022-10-31T14:16:41;70.95;;;44.20;;
47669;SDS011;33408;52.062;11.722;2022-10-31T14:19:14;75.55;;;43.50;;
47669;SDS011;33408;52.062;11.722;2022-10-31T14:21:43;77.95;;;46.40;;
47669;SDS011;33408;52.062;11.722;2022-10-31T14:24:15;79.40;;;44.58;;
47669;SDS011;33408;52.062;11.722;2022-10-31T14:27:01;82.35;;;46.63;;
47669;SDS011;33408;52.062;11.722;2022-10-31T14:29:30;81.10;;;44.88;;
47669;SDS011;33408;52.062;11.722;2022-10-31T14:31:59;86.07;;;47.42;;